ANZ4564 LROP-LBWN
Flight info
| Callsign | ANZ4564 |
|---|---|
| Flight time | N/A |
| Altitude | 29000 |
| Route | POLUN1K POLUN DCT RASUB DCT BULEN DCT EXIGA EXIGA3D |
| Aircraft | A21N/M-SDE2E3FGHIRWXY/LB1 |
Departure
| Time | 2026-04-30 13:50 |
|---|---|
| Airport | Bucharest Henri Coandă International Airport (LROP) |
Arrival
| Time | N/A |
|---|---|
| Airport | Varna Airport (LBWN) |
| Time | Latitude | Longitude | Altitude | Speed | Heading |
|---|---|---|---|---|---|
| 2026-04-30 13:28 | 44.57109 | 26.10055 | 320 ft | 0 kts | 354° |
| 2026-04-30 13:35 | 44.57097 | 26.10056 | 320 ft | 3 kts | 354° |
| 2026-04-30 13:35 | 44.57060 | 26.10061 | 318 ft | 3 kts | 355° |
| 2026-04-30 13:36 | 44.57042 | 26.10081 | 318 ft | 0 kts | 266° |
| 2026-04-30 13:39 | 44.57042 | 26.10073 | 317 ft | 3 kts | 266° |
| 2026-04-30 13:40 | 44.57037 | 26.10018 | 318 ft | 7 kts | 249° |
| 2026-04-30 13:40 | 44.57025 | 26.09962 | 319 ft | 8 kts | 261° |
| 2026-04-30 13:40 | 44.57024 | 26.09918 | 319 ft | 2 kts | 287° |
| 2026-04-30 13:40 | 44.57043 | 26.09896 | 318 ft | 5 kts | 339° |
| 2026-04-30 13:41 | 44.57093 | 26.09897 | 318 ft | 12 kts | 355° |
| 2026-04-30 13:41 | 44.57225 | 26.09878 | 320 ft | 25 kts | 353° |
| 2026-04-30 13:41 | 44.57372 | 26.09854 | 320 ft | 20 kts | 354° |
| 2026-04-30 13:41 | 44.57476 | 26.09839 | 320 ft | 7 kts | 355° |
| 2026-04-30 13:42 | 44.57499 | 26.09837 | 320 ft | 10 kts | 355° |
| 2026-04-30 13:42 | 44.57578 | 26.09773 | 320 ft | 17 kts | 292° |
| 2026-04-30 13:42 | 44.57553 | 26.09281 | 321 ft | 23 kts | 264° |
| 2026-04-30 13:43 | 44.57533 | 26.09022 | 322 ft | 25 kts | 264° |
| 2026-04-30 13:43 | 44.57519 | 26.08841 | 323 ft | 20 kts | 264° |
| 2026-04-30 13:43 | 44.57507 | 26.08682 | 320 ft | 9 kts | 264° |
| 2026-04-30 13:43 | 44.57504 | 26.08637 | 322 ft | 8 kts | 264° |
| 2026-04-30 13:44 | 44.57502 | 26.08613 | 323 ft | 0 kts | 264° |
| 2026-04-30 13:44 | 44.57500 | 26.08589 | 322 ft | 9 kts | 264° |
| 2026-04-30 13:44 | 44.57507 | 26.08491 | 322 ft | 3 kts | 301° |
| 2026-04-30 13:44 | 44.57515 | 26.08478 | 321 ft | 0 kts | 322° |
| 2026-04-30 13:47 | 44.57545 | 26.08460 | 324 ft | 11 kts | 345° |
| 2026-04-30 13:47 | 44.57627 | 26.08451 | 326 ft | 13 kts | 10° |
| 2026-04-30 13:47 | 44.57669 | 26.08538 | 326 ft | 12 kts | 90° |
| 2026-04-30 13:48 | 44.57671 | 26.08558 | 326 ft | 0 kts | 79° |
| 2026-04-30 13:49 | 44.57676 | 26.08605 | 326 ft | 31 kts | 82° |
| 2026-04-30 13:49 | 44.57731 | 26.09360 | 319 ft | 126 kts | 83° |
| 2026-04-30 13:50 | 44.57868 | 26.10962 | 540 ft | 191 kts | 87° |
| 2026-04-30 13:50 | 44.58001 | 26.15174 | 2222 ft | 237 kts | 88° |
| 2026-04-30 13:50 | 44.58072 | 26.17571 | 3336 ft | 252 kts | 88° |
| 2026-04-30 13:51 | 44.58146 | 26.20080 | 4512 ft | 263 kts | 88° |
| 2026-04-30 13:51 | 44.58221 | 26.22690 | 5741 ft | 271 kts | 88° |
| 2026-04-30 13:51 | 44.58298 | 26.25361 | 7018 ft | 277 kts | 88° |
| 2026-04-30 13:51 | 44.58376 | 26.28062 | 8289 ft | 283 kts | 88° |
| 2026-04-30 13:52 | 44.58239 | 26.30866 | 9592 ft | 287 kts | 101° |
| 2026-04-30 13:52 | 44.57523 | 26.33454 | 10996 ft | 284 kts | 123° |
| 2026-04-30 13:52 | 44.56136 | 26.35359 | 12435 ft | 280 kts | 152° |
| 2026-04-30 13:52 | 44.54307 | 26.35897 | 13808 ft | 273 kts | 189° |
| 2026-04-30 13:53 | 44.52517 | 26.35196 | 15226 ft | 262 kts | 197° |
| 2026-04-30 13:53 | 44.50803 | 26.34502 | 16585 ft | 252 kts | 195° |
| 2026-04-30 13:53 | 44.49118 | 26.34079 | 17844 ft | 240 kts | 187° |
| 2026-04-30 13:53 | 44.47500 | 26.33872 | 18991 ft | 227 kts | 181° |
| 2026-04-30 13:54 | 44.45959 | 26.33864 | 19998 ft | 215 kts | 179° |
| 2026-04-30 13:54 | 44.44505 | 26.34012 | 20865 ft | 203 kts | 172° |
| 2026-04-30 13:54 | 44.43157 | 26.34417 | 21534 ft | 197 kts | 163° |
| 2026-04-30 13:54 | 44.41805 | 26.35052 | 21670 ft | 221 kts | 161° |
| 2026-04-30 13:55 | 44.40207 | 26.35841 | 21455 ft | 264 kts | 160° |
| 2026-04-30 13:55 | 44.38388 | 26.36848 | 21453 ft | 298 kts | 157° |
| 2026-04-30 13:55 | 44.36389 | 26.38078 | 21547 ft | 328 kts | 155° |
| 2026-04-30 13:55 | 44.34249 | 26.39500 | 21687 ft | 355 kts | 154° |
| 2026-04-30 13:56 | 44.31985 | 26.41116 | 21846 ft | 378 kts | 152° |
| 2026-04-30 13:56 | 44.29585 | 26.42845 | 22093 ft | 395 kts | 156° |
| 2026-04-30 13:56 | 44.27006 | 26.44092 | 23346 ft | 379 kts | 168° |
| 2026-04-30 13:56 | 44.24524 | 26.43888 | 24787 ft | 353 kts | 207° |
| 2026-04-30 13:57 | 44.22488 | 26.42495 | 26841 ft | 304 kts | 205° |